Time;durP1;ratioP1;P1;durP2;ratioP2;P2;SDS_P1;SDS_P2;PMS_P1;PMS_P2;Temp;Humidity;BMP_temperature;BMP_pressure;BME280_temperature;BME280_humidity;BME280_pressure;Samples;Min_cycle;Max_cycle;Signal;HPM_P1;HPM_P2
2021/04/16 00:00:35;;;;;;;17.20;13.70;;;;;;;5.81;83.95;100524.58;105417;1108;77438;-64
2021/04/16 00:02:47;;;;;;;20.20;14.30;;;;;;;5.78;83.93;100522.20;105466;1108;78581;-60
2021/04/16 00:04:52;;;;;;;16.60;13.00;;;;;;;5.80;83.98;100536.28;105437;1108;78707;-60
2021/04/16 00:06:57;;;;;;;22.40;17.10;;;;;;;5.79;83.96;100529.27;105469;1108;77670;-64
2021/04/16 00:09:04;;;;;;;23.80;17.90;;;;;;;5.82;83.89;100524.41;105424;1108;76858;-64
2021/04/16 00:11:14;;;;;;;26.00;22.10;;;;;;;5.84;83.95;100525.12;105420;1108;79843;-62
2021/04/16 00:13:22;;;;;;;27.40;21.30;;;;;;;5.82;83.99;100523.59;105416;1108;77150;-60
2021/04/16 00:15:30;;;;;;;27.10;21.00;;;;;;;5.81;83.90;100525.42;105396;1108;78436;-59
2021/04/16 00:17:35;;;;;;;25.90;20.00;;;;;;;5.83;83.85;100520.73;105436;1108;78201;-59
2021/04/16 00:19:40;;;;;;;18.90;15.20;;;;;;;5.78;83.89;100522.20;105442;1107;77490;-60
2021/04/16 00:21:45;;;;;;;20.30;16.60;;;;;;;5.77;83.98;100521.36;105455;1108;77384;-63
2021/04/16 00:23:50;;;;;;;18.10;14.30;;;;;;;5.82;84.04;100518.23;105458;1108;78686;-64
2021/04/16 00:25:56;;;;;;;19.10;15.10;;;;;;;5.79;83.84;100519.39;105423;1108;78380;-62
2021/04/16 00:28:05;;;;;;;16.80;13.30;;;;;;;5.79;83.60;100508.66;105424;1107;76845;-62
2021/04/16 00:30:13;;;;;;;16.00;13.90;;;;;;;5.77;83.69;100509.79;105432;1108;78670;-62
2021/04/16 00:32:18;;;;;;;15.90;13.10;;;;;;;5.78;83.82;100506.13;105416;1108;78451;-63
2021/04/16 00:34:26;;;;;;;14.50;11.90;;;;;;;5.81;83.90;100500.45;105419;1108;78314;-63
2021/04/16 00:36:32;;;;;;;17.70;13.40;;;;;;;5.79;83.77;100508.66;105426;1108;78920;-60
2021/04/16 00:38:37;;;;;;;16.70;13.30;;;;;;;5.78;83.68;100506.13;105410;1108;78196;-60
2021/04/16 00:40:50;;;;;;;15.50;12.30;;;;;;;5.70;83.65;100503.38;105419;1108;77283;-60
2021/04/16 00:42:58;;;;;;;15.70;12.70;;;;;;;5.70;83.95;100506.91;105462;1108;78380;-64
2021/04/16 00:45:04;;;;;;;16.70;13.90;;;;;;;5.69;83.89;100505.21;105438;1108;80111;-64
2021/04/16 00:47:15;;;;;;;16.00;12.00;;;;;;;5.73;83.87;100500.39;104730;1111;77531;-60
2021/04/16 00:49:28;;;;;;;13.50;10.90;;;;;;;5.72;83.87;100498.70;104750;1111;78733;-60
2021/04/16 00:51:39;;;;;;;12.90;9.70;;;;;;;5.72;83.78;100506.73;105449;1108;77918;-60
2021/04/16 00:53:47;;;;;;;12.20;8.70;;;;;;;5.70;84.05;100503.38;105453;1108;77198;-60
2021/04/16 00:55:53;;;;;;;13.50;9.10;;;;;;;5.72;83.64;100498.70;105413;1108;77328;-61
2021/04/16 00:57:59;;;;;;;12.20;9.40;;;;;;;5.73;83.84;100497.71;105489;1102;77474;-60
2021/04/16 01:00:10;;;;;;;11.60;9.40;;;;;;;5.73;83.65;100489.67;105437;1107;77993;-60
2021/04/16 01:02:21;;;;;;;13.20;9.60;;;;;;;5.73;83.69;100493.20;105444;1108;76896;-60
2021/04/16 01:04:26;;;;;;;12.10;9.00;;;;;;;5.69;84.06;100501.69;105428;1108;77356;-60
2021/04/16 01:06:32;;;;;;;10.90;8.60;;;;;;;5.70;83.95;100492.66;105459;1108;78287;-60
2021/04/16 01:08:42;;;;;;;14.40;10.40;;;;;;;5.66;83.76;100489.44;105440;1107;77841;-60
2021/04/16 01:10:49;;;;;;;15.50;11.50;;;;;;;5.69;83.63;100491.81;105408;1108;79007;-60
2021/04/16 01:12:54;;;;;;;18.30;12.20;;;;;;;5.70;83.78;100482.78;104785;1111;76961;-64
2021/04/16 01:15:03;;;;;;;28.90;18.80;;;;;;;5.67;83.94;100472.38;104791;1110;77893;-64
2021/04/16 01:17:10;;;;;;;42.90;25.30;;;;;;;5.72;83.79;100474.58;105439;1108;78491;-64
2021/04/16 01:19:26;;;;;;;52.10;28.10;;;;;;;5.69;83.95;100474.88;105432;1107;78366;-64
2021/04/16 01:21:40;;;;;;;81.00;37.30;;;;;;;5.64;84.10;100478.05;105459;1108;76946;-63
2021/04/16 01:23:55;;;;;;;44.60;28.10;;;;;;;5.67;83.92;100472.38;104725;1110;77470;-64
2021/04/16 01:26:01;;;;;;;22.60;15.80;;;;;;;5.69;83.77;100475.73;105467;1108;77977;-64
2021/04/16 01:28:07;;;;;;;17.10;14.90;;;;;;;5.69;83.82;100465.02;105436;1108;77695;-60
2021/04/16 01:30:19;;;;;;;14.00;11.40;;;;;;;5.67;83.86;100467.02;105437;1108;79340;-61
2021/04/16 01:32:28;;;;;;;12.50;8.30;;;;;;;5.67;83.75;100471.53;105412;1108;77615;-64
2021/04/16 01:34:33;;;;;;;15.30;10.70;;;;;;;5.68;84.08;100465.19;105386;1108;77894;-64
2021/04/16 01:36:41;;;;;;;13.80;10.50;;;;;;;5.67;83.90;100464.34;104752;1111;79244;-64
2021/04/16 01:38:48;;;;;;;10.50;8.60;;;;;;;5.66;83.73;100459.96;105441;1108;77333;-64
2021/04/16 01:40:56;;;;;;;11.70;7.80;;;;;;;5.69;83.76;100467.69;105422;1108;78356;-64
2021/04/16 01:43:13;;;;;;;11.90;9.60;;;;;;;5.69;84.00;100461.48;105464;1108;78367;-64
2021/04/16 01:45:26;;;;;;;8.80;7.90;;;;;;;5.64;84.01;100461.12;105470;1101;77168;-67
2021/04/16 01:47:31;;;;;;;9.60;7.20;;;;;;;5.66;83.89;100464.50;104722;1110;79457;-64
2021/04/16 01:49:41;;;;;;;10.10;7.60;;;;;;;5.68;84.16;100459.82;105434;1108;78972;-64
2021/04/16 01:51:47;;;;;;;8.50;6.00;;;;;;;5.69;84.24;100464.16;105456;1108;77339;-60
2021/04/16 01:54:08;;;;;;;10.70;7.30;;;;;;;5.70;83.99;100460.50;105423;1108;78716;-60
2021/04/16 01:56:13;;;;;;;10.50;7.10;;;;;;;5.72;83.87;100458.50;105431;1108;78537;-61
2021/04/16 01:58:22;;;;;;;8.10;6.70;;;;;;;5.63;84.19;100459.45;105420;1103;77296;-59
2021/04/16 02:00:32;;;;;;;10.90;6.80;;;;;;;5.65;84.16;100460.98;105439;1108;77938;-60
2021/04/16 02:02:37;;;;;;;11.80;8.10;;;;;;;5.57;84.39;100446.67;105426;1108;77631;-60
2021/04/16 02:04:42;;;;;;;10.90;7.40;;;;;;;5.60;84.21;100457.08;105432;1108;79529;-60
2021/04/16 02:06:48;;;;;;;10.00;8.00;;;;;;;5.62;84.18;100447.89;105454;1108;78812;-60
2021/04/16 02:08:54;;;;;;;12.00;8.30;;;;;;;5.61;83.98;100445.34;105422;1108;80519;-60
2021/04/16 02:11:02;;;;;;;12.90;8.30;;;;;;;5.61;84.21;100450.70;105403;1108;77153;-61
2021/04/16 02:13:07;;;;;;;13.80;8.90;;;;;;;5.59;84.00;100441.99;105433;1108;78825;-63
2021/04/16 02:15:17;;;;;;;9.60;7.60;;;;;;;5.58;84.39;100448.34;105414;1107;78782;-63
2021/04/16 02:17:28;;;;;;;9.20;5.90;;;;;;;5.51;84.56;100447.30;105428;1108;77655;-60
2021/04/16 02:19:34;;;;;;;7.40;5.60;;;;;;;5.54;84.22;100441.63;105425;1108;78883;-60
2021/04/16 02:21:39;;;;;;;9.00;6.30;;;;;;;5.50;84.46;100443.77;104751;1110;76797;-63
2021/04/16 02:23:44;;;;;;;11.00;6.90;;;;;;;5.51;84.38;100441.94;104769;1110;76972;-63
2021/04/16 02:25:52;;;;;;;9.90;6.60;;;;;;;5.50;84.33;100437.56;104738;1111;78491;-63
2021/04/16 02:28:00;;;;;;;11.60;7.40;;;;;;;5.50;84.31;100435.73;104779;1111;77117;-60
2021/04/16 02:30:15;;;;;;;11.70;7.20;;;;;;;5.46;84.49;100437.05;104808;1111;78828;-60
2021/04/16 02:32:21;;;;;;;10.40;5.90;;;;;;;5.45;84.26;100447.91;104738;1111;77324;-63
2021/04/16 02:34:29;;;;;;;9.00;6.30;;;;;;;5.53;84.30;100447.97;104785;1111;78496;-64
2021/04/16 02:36:34;;;;;;;9.30;5.60;;;;;;;5.52;84.12;100451.66;104774;1111;77546;-62
2021/04/16 02:38:39;;;;;;;7.20;5.30;;;;;;;5.50;84.32;100450.95;104823;1111;78187;-62
2021/04/16 02:40:44;;;;;;;8.20;4.80;;;;;;;5.47;84.26;100452.11;104765;1111;78678;-62
2021/04/16 02:42:52;;;;;;;10.10;5.40;;;;;;;5.46;84.36;100442.41;104748;1111;78775;-60
2021/04/16 02:44:57;;;;;;;7.40;4.60;;;;;;;5.43;84.17;100436.52;104788;1111;78763;-60
2021/04/16 02:47:03;;;;;;;6.80;5.00;;;;;;;5.45;84.36;100445.23;104839;1111;78704;-60
2021/04/16 02:49:08;;;;;;;12.30;5.60;;;;;;;5.50;84.10;100445.59;104787;1111;78648;-60
2021/04/16 02:51:13;;;;;;;7.90;5.10;;;;;;;5.50;84.26;100454.48;104772;1111;77923;-60
2021/04/16 02:53:18;;;;;;;10.10;6.00;;;;;;;5.44;84.19;100446.25;104791;1111;78413;-60
2021/04/16 02:55:23;;;;;;;8.00;4.70;;;;;;;5.44;84.14;100449.73;104827;1111;77224;-59
2021/04/16 02:57:28;;;;;;;7.10;5.40;;;;;;;5.48;83.91;100444.92;104800;1111;77240;-60
2021/04/16 02:59:33;;;;;;;7.00;4.70;;;;;;;5.48;84.12;100444.92;104790;1103;77470;-60
2021/04/16 03:01:39;;;;;;;6.80;5.00;;;;;;;5.49;84.10;100442.10;104773;1110;78308;-60
2021/04/16 03:03:44;;;;;;;9.50;4.80;;;;;;;5.44;84.33;100443.56;104889;1103;78238;-59
2021/04/16 03:05:51;;;;;;;7.00;4.70;;;;;;;5.42;84.10;100445.53;104746;1111;77577;-60
2021/04/16 03:07:56;;;;;;;8.70;5.10;;;;;;;5.44;84.27;100439.02;104780;1111;77895;-60
2021/04/16 03:10:01;;;;;;;8.30;5.30;;;;;;;5.44;84.13;100433.66;104773;1111;78115;-60
2021/04/16 03:12:08;;;;;;;6.90;4.50;;;;;;;5.36;84.19;100437.13;104763;1111;78778;-60
2021/04/16 03:14:14;;;;;;;6.40;4.80;;;;;;;5.38;84.17;100431.63;104791;1111;79202;-60
2021/04/16 03:16:19;;;;;;;6.70;4.60;;;;;;;5.33;84.21;100442.80;104733;1111;78710;-60
2021/04/16 03:18:25;;;;;;;6.30;5.10;;;;;;;5.30;84.31;100445.77;104805;1111;77997;-60
2021/04/16 03:20:30;;;;;;;8.20;4.60;;;;;;;5.32;84.27;100435.77;104761;1111;77652;-60
2021/04/16 03:22:35;;;;;;;6.40;4.30;;;;;;;5.31;84.61;100436.76;104738;1103;77901;-64
2021/04/16 03:24:40;;;;;;;10.10;4.40;;;;;;;5.35;84.48;100440.83;104750;1111;77209;-64
2021/04/16 03:26:45;;;;;;;7.10;4.80;;;;;;;5.36;84.31;100439.81;104780;1111;77046;-64
2021/04/16 03:28:56;;;;;;;7.60;4.60;;;;;;;5.34;84.40;100439.13;104794;1111;77914;-64
2021/04/16 03:31:01;;;;;;;6.80;4.50;;;;;;;5.38;84.48;100444.18;104751;1111;78477;-64
2021/04/16 03:33:06;;;;;;;8.60;4.90;;;;;;;5.38;84.19;100437.80;104748;1111;78286;-64
2021/04/16 03:35:14;;;;;;;6.20;4.20;;;;;;;5.38;84.21;100442.34;104718;1111;79277;-64
2021/04/16 03:37:19;;;;;;;7.20;5.00;;;;;;;5.38;84.18;100427.09;104773;1111;77567;-60
2021/04/16 03:39:25;;;;;;;8.00;5.90;;;;;;;5.45;84.28;100437.19;104768;1111;78828;-60
2021/04/16 03:41:30;;;;;;;6.50;4.60;;;;;;;5.45;84.09;100439.87;104765;1110;79146;-64
2021/04/16 03:43:35;;;;;;;7.30;4.60;;;;;;;5.46;84.12;100442.41;104727;1111;78335;-64
2021/04/16 03:45:40;;;;;;;7.80;5.20;;;;;;;5.43;84.39;100444.55;104768;1111;77038;-64
2021/04/16 03:47:46;;;;;;;7.80;5.20;;;;;;;5.47;84.22;100435.19;104744;1111;78099;-59
2021/04/16 03:49:51;;;;;;;7.20;4.60;;;;;;;5.43;84.20;100433.83;104756;1111;78720;-59
2021/04/16 03:51:58;;;;;;;7.60;5.10;;;;;;;5.42;84.22;100446.38;104785;1111;79200;-60
2021/04/16 03:54:03;;;;;;;7.90;4.40;;;;;;;5.41;84.20;100433.16;104778;1111;78218;-59
2021/04/16 03:56:14;;;;;;;6.60;4.60;;;;;;;5.41;84.13;100435.84;104795;1111;79103;-60
2021/04/16 03:58:19;;;;;;;8.20;4.90;;;;;;;5.43;84.17;100442.72;104727;1111;78329;-63
2021/04/16 04:00:30;;;;;;;8.80;5.10;;;;;;;5.42;84.35;100443.70;104735;1103;77148;-63
2021/04/16 04:02:34;;;;;;;7.60;4.50;;;;;;;5.42;84.48;100448.22;104776;1111;78074;-59
2021/04/16 04:04:40;;;;;;;6.70;5.00;;;;;;;5.45;84.12;100453.27;104784;1111;79298;-59
2021/04/16 04:06:47;;;;;;;8.70;5.20;;;;;;;5.44;84.33;100440.89;104816;1111;77127;-63
2021/04/16 04:08:52;;;;;;;7.50;4.80;;;;;;;5.44;84.32;100443.56;104768;1111;78482;-63
2021/04/16 04:10:57;;;;;;;6.90;4.70;;;;;;;5.42;84.31;100442.86;104753;1111;77142;-61
2021/04/16 04:13:03;;;;;;;8.60;4.80;;;;;;;5.34;84.43;100447.17;104747;1111;79122;-63
2021/04/16 04:15:12;;;;;;;8.40;5.00;;;;;;;5.40;84.25;100447.53;104783;1111;78858;-63
2021/04/16 04:17:26;;;;;;;6.70;4.90;;;;;;;5.40;84.49;100452.89;104727;1111;78493;-63
2021/04/16 04:19:34;;;;;;;9.50;4.40;;;;;;;5.43;84.36;100447.23;104755;1111;78030;-63
2021/04/16 04:21:39;;;;;;;4.80;3.50;;;;;;;5.41;84.22;100444.72;104750;1111;78100;-63
2021/04/16 04:23:44;;;;;;;7.90;4.10;;;;;;;5.38;84.53;100444.18;104763;1110;78020;-65
2021/04/16 04:25:49;;;;;;;9.60;4.60;;;;;;;5.38;84.48;100441.50;104799;1111;78456;-62
2021/04/16 04:27:58;;;;;;;7.60;4.30;;;;;;;5.32;84.69;100441.13;104721;1111;79084;-59
2021/04/16 04:30:06;;;;;;;5.90;4.50;;;;;;;5.40;84.32;100447.53;104804;1111;77376;-60
2021/04/16 04:32:11;;;;;;;6.10;4.00;;;;;;;5.37;84.44;100448.69;104882;1101;77552;-60
2021/04/16 04:34:19;;;;;;;8.80;4.50;;;;;;;5.41;84.61;100451.91;104773;1111;78141;-60
2021/04/16 04:36:24;;;;;;;6.60;4.30;;;;;;;5.40;84.51;100456.42;104750;1111;77545;-64
2021/04/16 04:38:29;;;;;;;6.60;4.30;;;;;;;5.40;84.54;100452.89;104789;1111;77047;-63
2021/04/16 04:40:35;;;;;;;7.20;5.20;;;;;;;5.40;84.42;100452.89;104780;1111;79442;-64
2021/04/16 04:42:40;;;;;;;5.70;4.20;;;;;;;5.36;84.58;100441.64;104748;1111;77619;-63
2021/04/16 04:44:45;;;;;;;8.40;4.50;;;;;;;5.35;84.78;100448.02;104761;1111;78135;-63
2021/04/16 04:46:50;;;;;;;7.70;4.30;;;;;;;5.32;84.73;100443.81;104748;1111;77154;-59
2021/04/16 04:48:55;;;;;;;7.00;5.10;;;;;;;5.36;84.57;100445.16;104756;1111;78761;-59
2021/04/16 04:51:05;;;;;;;9.70;5.10;;;;;;;5.41;84.61;100446.55;104815;1111;78681;-59
2021/04/16 04:53:10;;;;;;;6.90;4.20;;;;;;;5.35;84.69;100443.50;104851;1103;78506;-63
2021/04/16 04:55:19;;;;;;;7.70;4.40;;;;;;;5.36;84.74;100437.13;104779;1103;77450;-62
2021/04/16 04:57:25;;;;;;;9.60;4.90;;;;;;;5.40;84.88;100436.82;104807;1111;77539;-63
2021/04/16 04:59:31;;;;;;;7.50;4.60;;;;;;;5.40;84.69;100447.53;104737;1111;76867;-62
2021/04/16 05:01:36;;;;;;;7.90;5.20;;;;;;;5.41;84.77;100435.84;104757;1111;77876;-60
2021/04/16 05:03:41;;;;;;;7.90;4.70;;;;;;;5.36;84.95;100430.92;104830;1110;78297;-59
2021/04/16 05:05:46;;;;;;;7.70;4.70;;;;;;;5.38;85.02;100428.11;104766;1111;78393;-60
2021/04/16 05:07:54;;;;;;;6.90;4.50;;;;;;;5.38;84.80;100428.95;104776;1111;78607;-63
2021/04/16 05:09:59;;;;;;;10.60;5.10;;;;;;;5.42;84.92;100430.31;104798;1111;77105;-64
2021/04/16 05:12:06;;;;;;;8.80;4.90;;;;;;;5.41;85.17;100423.30;104800;1111;77729;-64
2021/04/16 05:14:12;;;;;;;7.70;4.50;;;;;;;5.46;84.99;100430.84;104794;1111;77214;-63
2021/04/16 05:16:16;;;;;;;8.60;4.20;;;;;;;5.38;85.08;100440.48;104748;1111;78262;-60
2021/04/16 05:18:25;;;;;;;9.40;4.80;;;;;;;5.43;84.83;100431.16;104780;1111;76921;-60
2021/04/16 05:20:30;;;;;;;7.50;4.80;;;;;;;5.48;85.02;100434.20;104743;1110;77925;-61
2021/04/16 05:22:35;;;;;;;6.70;4.30;;;;;;;5.50;85.07;100429.52;104744;1110;78490;-63
2021/04/16 05:24:40;;;;;;;7.70;5.30;;;;;;;5.49;84.82;100431.39;104731;1111;78649;-63
2021/04/16 05:26:45;;;;;;;7.70;4.80;;;;;;;5.52;85.04;100432.91;104782;1111;77943;-60
2021/04/16 05:28:50;;;;;;;7.30;4.60;;;;;;;5.54;84.80;100434.44;104780;1110;78902;-60
2021/04/16 05:30:55;;;;;;;7.80;4.10;;;;;;;5.54;84.87;100434.44;104793;1111;78316;-61
2021/04/16 05:33:01;;;;;;;6.30;4.20;;;;;;;5.48;85.10;100432.38;104804;1111;78708;-60
2021/04/16 05:35:09;;;;;;;7.90;4.10;;;;;;;5.52;85.07;100430.23;104766;1111;78475;-61
2021/04/16 05:37:15;;;;;;;8.60;4.80;;;;;;;5.58;84.78;100443.83;104773;1111;77590;-64
2021/04/16 05:39:20;;;;;;;9.80;5.00;;;;;;;5.61;84.71;100439.98;104754;1111;76912;-64
2021/04/16 05:41:25;;;;;;;8.40;4.60;;;;;;;5.59;84.96;100441.99;104780;1111;78874;-63
2021/04/16 05:43:30;;;;;;;9.40;5.10;;;;;;;5.60;84.99;100433.81;104795;1111;77649;-64
2021/04/16 05:45:38;;;;;;;9.60;5.00;;;;;;;5.64;84.65;100435.17;104819;1109;78367;-64
2021/04/16 05:47:43;;;;;;;9.20;5.30;;;;;;;5.70;84.83;100428.34;104800;1111;78389;-60
2021/04/16 05:49:48;;;;;;;6.70;4.40;;;;;;;5.71;84.65;100438.07;104776;1111;78405;-60
2021/04/16 05:51:54;;;;;;;7.80;4.90;;;;;;;5.74;84.71;100427.04;104818;1111;77065;-59
2021/04/16 05:54:01;;;;;;;6.70;4.70;;;;;;;5.78;84.84;100425.71;104795;1111;78177;-61
2021/04/16 05:56:10;;;;;;;6.90;4.10;;;;;;;5.78;84.65;100431.06;104819;1111;78853;-61
2021/04/16 05:58:15;;;;;;;7.90;4.10;;;;;;;5.77;84.77;100424.86;104803;1111;77135;-59
2021/04/16 06:00:23;;;;;;;7.30;4.50;;;;;;;5.85;84.77;100426.81;104798;1111;77344;-59
2021/04/16 06:02:32;;;;;;;7.20;4.40;;;;;;;5.89;84.56;100428.16;104750;1111;77778;-60
2021/04/16 06:04:38;;;;;;;6.20;4.40;;;;;;;5.91;84.80;100424.31;104775;1111;77235;-60
2021/04/16 06:06:43;;;;;;;6.70;4.30;;;;;;;5.96;84.60;100417.66;104838;1111;79190;-64
2021/04/16 06:08:48;;;;;;;8.00;4.20;;;;;;;5.98;84.56;100418.33;104747;1111;77321;-65
2021/04/16 06:10:56;;;;;;;8.30;4.20;;;;;;;6.03;84.63;100418.68;104833;1111;78727;-63
2021/04/16 06:13:01;;;;;;;7.10;3.90;;;;;;;6.01;84.66;100415.33;104798;1111;78972;-63
2021/04/16 06:15:10;;;;;;;8.50;4.10;;;;;;;6.01;84.63;100415.33;104743;1111;78720;-63
2021/04/16 06:17:17;;;;;;;6.40;4.50;;;;;;;6.00;84.53;100414.48;104748;1111;77395;-63
2021/04/16 06:19:25;;;;;;;8.80;5.10;;;;;;;5.97;84.50;100417.48;104792;1111;78176;-64
2021/04/16 06:21:30;;;;;;;6.40;4.20;;;;;;;5.98;84.63;100413.81;104766;1111;77561;-63
2021/04/16 06:23:36;;;;;;;8.40;5.10;;;;;;;6.00;84.30;100414.48;104801;1111;77390;-64
2021/04/16 06:25:41;;;;;;;6.90;4.30;;;;;;;6.02;84.34;100420.52;104791;1111;78166;-64
2021/04/16 06:27:46;;;;;;;5.00;3.50;;;;;;;6.05;84.47;100428.24;104813;1104;77749;-64
2021/04/16 06:29:51;;;;;;;6.20;4.00;;;;;;;5.95;84.63;100427.53;104799;1111;79215;-64
2021/04/16 06:31:56;;;;;;;6.40;3.90;;;;;;;5.94;84.56;100425.84;104774;1111;78714;-59
2021/04/16 06:34:01;;;;;;;5.20;3.80;;;;;;;5.92;84.55;100428.69;104746;1111;78733;-60
2021/04/16 06:36:11;;;;;;;7.60;4.40;;;;;;;5.91;84.38;100431.52;104782;1111;78473;-60
2021/04/16 06:38:22;;;;;;;6.50;4.40;;;;;;;5.96;84.39;100418.47;104763;1111;78033;-60
2021/04/16 06:40:32;;;;;;;8.40;4.00;;;;;;;6.01;84.20;100424.22;104823;1111;77117;-60
2021/04/16 06:42:37;;;;;;;7.20;4.40;;;;;;;6.08;84.71;100421.72;104812;1111;77797;-65
2021/04/16 06:44:46;;;;;;;5.80;3.30;;;;;;;6.07;84.62;100417.38;104795;1111;78514;-65
2021/04/16 06:46:57;;;;;;;5.80;3.70;;;;;;;6.04;84.56;100431.10;104797;1111;77128;-66
2021/04/16 06:49:07;;;;;;;8.30;3.90;;;;;;;6.01;84.30;100426.90;104844;1111;78768;-65
2021/04/16 06:51:13;;;;;;;6.80;4.40;;;;;;;5.99;84.32;100423.52;104799;1111;77967;-62
2021/04/16 06:53:29;;;;;;;7.60;4.10;;;;;;;6.00;84.28;100422.52;104804;1111;76916;-60
2021/04/16 06:55:53;;;;;;;9.10;4.40;;;;;;;6.02;84.30;100428.56;104809;1111;78851;-60
2021/04/16 06:58:03;;;;;;;;;;;;;;;6.00;84.47;100429.72;104896;1104;78936;-59
2021/04/16 07:00:22;;;;;;;7.10;3.60;;;;;;;5.90;84.31;100429.85;104805;1111;77233;-60
2021/04/16 07:02:40;;;;;;;7.70;4.20;;;;;;;5.94;84.40;100426.69;104811;1111;78669;-65
2021/04/16 07:04:52;;;;;;;7.10;4.20;;;;;;;5.95;84.18;100427.53;104857;1103;77770;-66
2021/04/16 07:07:11;;;;;;;7.50;3.60;;;;;;;5.97;84.51;100436.25;104816;1111;79159;-65
2021/04/16 07:09:26;;;;;;;5.90;4.00;;;;;;;5.98;84.18;100429.05;105371;1108;78301;-64
2021/04/16 07:11:42;;;;;;;6.70;3.90;;;;;;;6.02;84.18;100427.72;105412;1102;77538;-64
2021/04/16 07:13:51;;;;;;;8.00;4.10;;;;;;;6.00;84.21;100433.25;105430;1108;78294;-63
2021/04/16 07:15:56;;;;;;;7.40;4.20;;;;;;;5.97;84.45;100428.20;105390;1108;76963;-65
2021/04/16 07:18:06;;;;;;;6.20;3.90;;;;;;;6.03;84.44;100430.25;105352;1107;77380;-65
2021/04/16 07:20:21;;;;;;;7.60;4.10;;;;;;;6.07;83.96;100426.23;105436;1107;79058;-66
2021/04/16 07:22:41;;;;;;;7.50;4.30;;;;;;;6.11;84.28;100430.30;105463;1107;78600;-60
2021/04/16 07:24:48;;;;;;;8.30;3.70;;;;;;;6.01;84.15;100420.69;105446;1107;77878;-61
2021/04/16 07:26:57;;;;;;;6.90;4.50;;;;;;;6.02;84.59;100428.56;105443;1108;78971;-60
2021/04/16 07:29:03;;;;;;;8.70;5.40;;;;;;;6.05;84.08;100422.03;104770;1109;77598;-60
2021/04/16 07:31:42;;;;;;;8.20;4.50;;;;;;;6.08;84.21;100419.03;105466;1108;79436;-60
2021/04/16 07:33:51;;;;;;;7.30;4.40;;;;;;;6.15;84.05;100422.77;104836;1110;79736;-60
2021/04/16 07:36:20;;;;;;;6.80;4.10;;;;;;;6.20;84.11;100410.56;105468;1108;79743;-59
2021/04/16 07:38:33;;;;;;;6.60;4.70;;;;;;;6.25;84.08;100416.28;105436;1108;77057;-59
2021/04/16 07:40:42;;;;;;;6.00;3.90;;;;;;;6.28;84.10;100413.28;105412;1107;77046;-60
2021/04/16 07:42:50;;;;;;;7.20;4.20;;;;;;;6.29;84.00;100409.58;105431;1108;77366;-60
2021/04/16 07:45:20;;;;;;;6.10;4.10;;;;;;;6.28;84.13;100407.91;104764;1110;78334;-60
2021/04/16 07:47:29;;;;;;;5.50;3.40;;;;;;;6.25;84.26;100418.12;104757;1110;78286;-64
2021/04/16 07:49:36;;;;;;;5.40;4.10;;;;;;;6.26;83.88;100425.99;104835;1110;78995;-65
2021/04/16 07:51:45;;;;;;;5.80;3.70;;;;;;;6.31;83.83;100423.69;105409;1108;78944;-60
2021/04/16 07:56:20;;;;;;;7.90;4.20;;;;;;;6.27;83.93;100427.69;105423;1108;77216;-60
2021/04/16 07:58:29;;;;;;;6.20;5.00;;;;;;;6.23;83.87;100431.70;105446;1108;78102;-64
2021/04/16 08:00:43;;;;;;;6.20;3.60;;;;;;;6.23;83.73;100437.07;105425;1091;77171;-60
2021/04/16 08:02:54;;;;;;;5.40;3.50;;;;;;;6.15;84.23;100438.88;105440;1108;78851;-60
2021/04/16 08:05:27;;;;;;;4.90;3.60;;;;;;;6.11;84.22;100432.98;105479;1102;77350;-64
2021/04/16 08:07:39;;;;;;;5.50;3.80;;;;;;;6.12;84.15;100434.67;104738;1108;78704;-64
2021/04/16 08:09:44;;;;;;;5.60;3.70;;;;;;;6.05;84.10;100443.48;104834;1110;76888;-61
2021/04/16 08:11:49;;;;;;;7.40;3.50;;;;;;;6.04;84.12;100437.31;104807;1111;78187;-63
2021/04/16 08:14:05;;;;;;;6.80;4.10;;;;;;;6.12;84.12;100436.50;104748;1110;77199;-61
2021/04/16 08:16:17;;;;;;;6.70;3.90;;;;;;;6.10;84.31;100435.83;104830;1103;78656;-61
2021/04/16 08:18:27;;;;;;;5.50;3.80;;;;;;;6.14;84.09;100437.17;104801;1110;77815;-60
2021/04/16 08:20:38;;;;;;;7.60;3.80;;;;;;;6.15;84.16;100450.45;104842;1110;78736;-59
2021/04/16 08:22:43;;;;;;;6.40;3.80;;;;;;;6.10;84.25;100449.23;104767;1111;78457;-59
2021/04/16 08:24:54;;;;;;;6.60;3.50;;;;;;;6.15;84.12;100438.88;104786;1110;79417;-60
2021/04/16 08:27:25;;;;;;;6.70;4.00;;;;;;;6.19;84.18;100442.89;104809;1111;76806;-60
2021/04/16 08:29:40;;;;;;;5.90;4.20;;;;;;;6.25;84.49;100440.42;104767;1110;78762;-58
2021/04/16 08:31:57;;;;;;;7.40;4.00;;;;;;;6.31;84.52;100436.27;104855;1101;77176;-62
2021/04/16 08:34:02;;;;;;;7.20;4.30;;;;;;;6.33;84.11;100427.05;104825;1111;79153;-65
2021/04/16 08:36:23;;;;;;;5.50;3.50;;;;;;;6.32;84.29;100433.41;104765;1110;78640;-66
2021/04/16 08:38:36;;;;;;;7.50;4.30;;;;;;;6.39;84.21;100429.09;104832;1111;79187;-66
2021/04/16 08:40:46;;;;;;;7.20;4.00;;;;;;;6.47;84.05;100430.95;104803;1109;77474;-65
2021/04/16 08:42:52;;;;;;;5.70;3.60;;;;;;;6.49;84.08;100440.52;104784;1111;78033;-63
2021/04/16 08:45:09;;;;;;;4.80;3.30;;;;;;;6.49;84.29;100432.47;104829;1110;78401;-66
2021/04/16 08:47:25;;;;;;;6.20;4.20;;;;;;;6.61;84.03;100433.02;104787;1111;77098;-66
2021/04/16 08:49:33;;;;;;;7.20;4.20;;;;;;;6.66;84.11;100432.52;104840;1111;78084;-63
2021/04/16 08:51:47;;;;;;;6.60;4.00;;;;;;;6.80;84.29;100424.69;104838;1111;78572;-64
2021/04/16 08:53:58;;;;;;;7.00;3.90;;;;;;;6.92;84.00;100425.22;104784;1111;78393;-64
2021/04/16 08:56:22;;;;;;;8.10;3.90;;;;;;;6.91;83.81;100429.74;104813;1111;78377;-63
2021/04/16 08:58:34;;;;;;;5.30;4.20;;;;;;;6.91;83.72;100431.58;104820;1111;78084;-65
2021/04/16 09:00:44;;;;;;;3.90;3.50;;;;;;;6.88;83.73;100431.91;104784;1111;79600;-63
2021/04/16 09:02:53;;;;;;;6.70;3.50;;;;;;;6.90;83.67;100436.11;104757;1111;78122;-63
2021/04/16 09:05:16;;;;;;;8.40;4.00;;;;;;;6.96;83.78;100430.08;104754;1111;77361;-63
2021/04/16 09:07:39;;;;;;;5.70;3.70;;;;;;;7.00;83.45;100430.59;104876;1103;78430;-62
2021/04/16 09:09:52;;;;;;;4.90;3.60;;;;;;;7.00;83.67;100423.36;104802;1111;76746;-68
2021/04/16 09:12:02;;;;;;;7.50;3.90;;;;;;;7.00;83.78;100430.59;104773;1110;79081;-63
2021/04/16 09:14:09;;;;;;;5.30;3.00;;;;;;;7.04;83.56;100430.09;105389;1107;77910;-62
2021/04/16 09:16:43;;;;;;;5.10;3.90;;;;;;;7.09;83.67;100429.58;105452;1108;78773;-63
2021/04/16 09:18:51;;;;;;;4.90;4.10;;;;;;;7.20;83.34;100437.31;105442;1102;77239;-66
2021/04/16 09:21:28;;;;;;;6.50;4.20;;;;;;;7.27;83.46;100426.75;105406;1108;78233;-66
2021/04/16 09:24:00;;;;;;;6.50;3.90;;;;;;;7.44;83.18;100429.28;105408;1108;79668;-70
2021/04/16 09:26:05;;;;;;;5.90;4.30;;;;;;;7.41;83.17;100431.47;104794;1111;77205;-66
2021/04/16 09:28:59;;;;;;;5.20;3.60;;;;;;;7.50;83.12;100431.27;105405;1108;78688;-66
2021/04/16 09:31:31;;;;;;;5.50;4.00;;;;;;;7.59;82.94;100421.36;104831;1111;79440;-67
2021/04/16 09:33:47;;;;;;;7.20;4.50;;;;;;;7.58;82.86;100423.20;105424;1108;78051;-68
2021/04/16 09:36:06;;;;;;;5.10;4.30;;;;;;;7.52;82.79;100428.44;105431;1108;77075;-63
2021/04/16 09:38:58;;;;;;;9.10;5.40;;;;;;;7.51;82.80;100424.91;105399;1108;77385;-68
2021/04/16 09:41:37;;;;;;;9.90;4.80;;;;;;;7.68;82.61;100420.35;105118;1108;77331;-69
2021/04/16 09:43:49;;;;;;;7.60;4.40;;;;;;;7.82;82.71;100427.73;105403;1108;77948;-64
2021/04/16 09:45:54;;;;;;;6.90;4.80;;;;;;;7.92;82.73;100424.84;105443;1108;77612;-61
2021/04/16 09:48:04;;;;;;;6.60;4.00;;;;;;;7.97;82.65;100433.23;105458;1107;77137;-63
2021/04/16 09:50:36;;;;;;;7.40;3.90;;;;;;;7.98;82.40;100426.84;105459;1108;78853;-63
2021/04/16 09:53:17;;;;;;;5.90;4.60;;;;;;;8.01;82.32;100427.34;104770;1111;79439;-62
2021/04/16 09:56:15;;;;;;;5.90;4.40;;;;;;;8.12;82.19;100412.69;105420;1108;78566;-63
2021/04/16 09:59:27;;;;;;;6.30;4.30;;;;;;;8.07;81.95;100421.29;105422;1108;78196;-66
2021/04/16 10:01:33;;;;;;;5.60;4.50;;;;;;;8.08;82.00;100414.03;105428;1108;78579;-64
2021/04/16 10:03:49;;;;;;;8.10;5.00;;;;;;;8.04;81.88;100410.87;105445;1108;78274;-65